Time;durP1;ratioP1;P1;durP2;ratioP2;P2;SDS_P1;SDS_P2;PMS_P1;PMS_P2;Temp;Humidity;BMP_temperature;BMP_pressure;BME280_temperature;BME280_humidity;BME280_pressure;Samples;Min_cycle;Max_cycle;Signal;HPM_P1;HPM_P2
2023/06/23 00:00:32;;;;;;;12.20;10.90;;;20.10;99.90;;;;;;5035143;28;20183;-73
2023/06/23 00:03:00;;;;;;;11.52;10.32;;;20.10;99.90;;;;;;5036903;28;20260;-75
2023/06/23 00:05:26;;;;;;;11.63;9.90;;;20.10;99.90;;;;;;5036335;28;20227;-74
2023/06/23 00:07:52;;;;;;;12.48;11.18;;;20.10;99.90;;;;;;5036239;28;20181;-74
2023/06/23 00:10:20;;;;;;;12.73;11.40;;;20.10;99.90;;;;;;5036413;28;20234;-75
2023/06/23 00:12:48;;;;;;;13.13;11.02;;;20.10;99.90;;;;;;5042089;28;20205;-75
2023/06/23 00:15:15;;;;;;;11.65;10.50;;;20.00;99.90;;;;;;5017240;28;20174;-73
2023/06/23 00:17:45;;;;;;;11.35;10.25;;;20.00;99.90;;;;;;5034469;28;20173;-75
2023/06/23 00:20:13;;;;;;;11.10;9.73;;;20.00;99.90;;;;;;5035150;28;20186;-75
2023/06/23 00:22:43;;;;;;;11.05;9.85;;;20.00;99.90;;;;;;5040646;28;20177;-75
2023/06/23 00:25:09;;;;;;;12.23;10.57;;;20.00;99.90;;;;;;5031521;28;20197;-72
2023/06/23 00:27:39;;;;;;;13.80;10.20;;;19.90;99.90;;;;;;5039792;28;20178;-75
2023/06/23 00:30:06;;;;;;;10.45;9.05;;;19.90;99.90;;;;;;5038958;28;20227;-73
2023/06/23 00:32:35;;;;;;;10.77;9.57;;;19.90;99.90;;;;;;5040488;28;20243;-75
2023/06/23 00:35:05;;;;;;;9.07;8.18;;;19.90;99.90;;;;;;5040003;28;20170;-74
2023/06/23 00:37:37;;;;;;;9.40;7.90;;;19.90;99.90;;;;;;5039311;28;20231;-72
2023/06/23 00:40:04;;;;;;;10.27;8.13;;;19.90;99.90;;;;;;5040455;28;20166;-73
2023/06/23 00:42:30;;;;;;;8.65;7.00;;;19.80;99.90;;;;;;5039701;28;20177;-74
2023/06/23 00:45:00;;;;;;;9.75;8.05;;;19.80;99.90;;;;;;5039482;28;20544;-72
2023/06/23 00:47:29;;;;;;;10.52;7.38;;;19.80;99.90;;;;;;5056040;28;20193;-73
2023/06/23 00:49:54;;;;;;;8.48;7.20;;;19.80;99.90;;;;;;5039038;28;20204;-74
2023/06/23 00:52:21;;;;;;;8.55;7.60;;;19.80;99.90;;;;;;5039952;28;20189;-75
2023/06/23 00:54:49;;;;;;;8.02;7.07;;;19.80;99.90;;;;;;5039684;28;20264;-74
2023/06/23 00:57:17;;;;;;;9.82;8.52;;;19.80;99.90;;;;;;5036026;28;20194;-75
2023/06/23 00:59:42;;;;;;;8.77;7.70;;;19.80;99.90;;;;;;5039565;28;20169;-75
2023/06/23 01:02:08;;;;;;;9.93;7.38;;;19.80;99.90;;;;;;5042532;28;20258;-74
2023/06/23 01:04:39;;;;;;;8.23;7.13;;;19.80;99.90;;;;;;5039794;28;20236;-69
2023/06/23 01:07:33;;;;;;;8.82;7.63;;;19.80;99.90;;;;;;5055754;28;20208;-75
2023/06/23 01:10:36;;;;;;;7.97;6.70;;;19.80;99.90;;;;;;5049808;28;20193;-74
2023/06/23 01:13:08;;;;;;;8.27;7.40;;;19.70;99.90;;;;;;5018483;28;20213;-72
2023/06/23 01:15:38;;;;;;;8.68;7.32;;;19.70;99.90;;;;;;5023320;28;20311;-73
2023/06/23 01:18:22;;;;;;;10.48;8.77;;;19.70;99.90;;;;;;5038887;28;20197;-71
2023/06/23 01:20:51;;;;;;;9.73;7.45;;;19.60;99.90;;;;;;5035442;28;20189;-75
2023/06/23 01:23:33;;;;;;;9.15;7.68;;;19.60;99.90;;;;;;5037380;28;20197;-75
2023/06/23 01:26:17;;;;;;;9.15;8.00;;;19.50;99.90;;;;;;5039181;28;20220;-74
2023/06/23 01:29:00;;;;;;;9.57;8.23;;;19.60;99.90;;;;;;5038789;28;20264;-74
2023/06/23 01:31:35;;;;;;;9.55;8.13;;;19.50;99.90;;;;;;5022433;28;20185;-74
2023/06/23 01:34:08;;;;;;;10.50;9.27;;;19.50;99.90;;;;;;5040773;28;20228;-75
2023/06/23 01:36:46;;;;;;;10.45;8.52;;;19.50;99.90;;;;;;5034200;28;20337;-73
2023/06/23 01:39:15;;;;;;;11.10;9.68;;;19.50;99.90;;;;;;5035066;28;20177;-74
2023/06/23 01:41:46;;;;;;;12.05;8.23;;;19.40;99.90;;;;;;5038467;28;20203;-74
2023/06/23 01:44:16;;;;;;;9.23;8.20;;;19.40;99.90;;;;;;5038565;28;20261;-74
2023/06/23 01:46:55;;;;;;;11.90;8.20;;;19.50;99.90;;;;;;5040223;28;20182;-73
2023/06/23 01:49:30;;;;;;;10.35;7.97;;;19.40;99.90;;;;;;5029289;28;20284;-73
2023/06/23 01:52:00;;;;;;;7.82;6.75;;;19.40;99.90;;;;;;5038380;28;20188;-76
2023/06/23 01:54:29;;;;;;;9.55;6.93;;;19.40;99.90;;;;;;5038190;28;20268;-75
2023/06/23 01:56:58;;;;;;;7.60;6.07;;;19.40;99.90;;;;;;5037762;28;20231;-75
2023/06/23 01:59:27;;;;;;;8.18;5.22;;;19.40;99.90;;;;;;5055152;28;20181;-73
2023/06/23 02:01:54;;;;;;;6.55;5.32;;;19.40;99.90;;;;;;5038168;28;20169;-74
2023/06/23 02:04:20;;;;;;;5.28;4.78;;;19.40;99.90;;;;;;5037187;28;20232;-74
2023/06/23 02:06:49;;;;;;;5.50;4.80;;;19.30;99.90;;;;;;5024738;28;20177;-75
2023/06/23 02:09:24;;;;;;;6.10;4.80;;;19.30;99.90;;;;;;5034499;28;20185;-68
2023/06/23 02:11:51;;;;;;;5.90;4.75;;;19.20;99.90;;;;;;5019082;28;20173;-74
2023/06/23 02:14:18;;;;;;;6.63;4.75;;;19.20;99.90;;;;;;5033281;28;20215;-74
2023/06/23 02:16:46;;;;;;;6.43;5.03;;;19.20;99.90;;;;;;5036986;28;20193;-76
2023/06/23 02:19:14;;;;;;;6.63;4.93;;;19.10;99.90;;;;;;5036885;28;20311;-77
2023/06/23 02:21:43;;;;;;;5.78;5.00;;;19.10;99.90;;;;;;5037459;28;20256;-74
2023/06/23 02:24:14;;;;;;;6.15;4.45;;;19.10;99.90;;;;;;5038369;28;20200;-73
2023/06/23 02:26:44;;;;;;;4.70;4.13;;;19.10;99.90;;;;;;5018435;28;20277;-73
2023/06/23 02:29:10;;;;;;;6.40;3.95;;;19.00;99.90;;;;;;5028279;28;20177;-74
2023/06/23 02:31:36;;;;;;;6.60;4.10;;;19.00;99.90;;;;;;5036739;28;20196;-75
2023/06/23 02:34:04;;;;;;;7.47;4.40;;;19.00;99.90;;;;;;5037626;28;20225;-74
2023/06/23 02:36:35;;;;;;;7.35;4.50;;;19.00;99.90;;;;;;5037554;28;20251;-72
2023/06/23 02:39:04;;;;;;;5.13;4.20;;;19.00;99.90;;;;;;5034657;28;20185;-75
2023/06/23 02:41:35;;;;;;;5.88;4.20;;;18.90;99.90;;;;;;5035799;28;20412;-67
2023/06/23 02:44:10;;;;;;;6.22;4.63;;;18.90;99.90;;;;;;5036279;28;20223;-73
2023/06/23 02:46:42;;;;;;;5.53;4.15;;;18.80;99.90;;;;;;5034561;28;20242;-75
2023/06/23 02:49:15;;;;;;;6.60;4.55;;;18.80;99.90;;;;;;5033914;28;20189;-71
2023/06/23 02:51:43;;;;;;;5.45;4.32;;;18.80;99.90;;;;;;5043766;28;20181;-76
2023/06/23 02:54:19;;;;;;;7.18;4.80;;;18.70;99.90;;;;;;5040536;28;20311;-74
2023/06/23 02:56:46;;;;;;;5.95;4.13;;;18.70;99.90;;;;;;5034584;28;20197;-76
2023/06/23 02:59:20;;;;;;;6.28;4.75;;;18.70;99.90;;;;;;5035876;28;20750;-73
2023/06/23 03:01:52;;;;;;;9.30;5.38;;;18.80;99.90;;;;;;5025662;28;20173;-72
2023/06/23 03:04:21;;;;;;;5.53;4.35;;;18.80;99.90;;;;;;5045197;28;20185;-72
2023/06/23 03:06:47;;;;;;;6.57;4.28;;;18.80;99.90;;;;;;5035770;28;20181;-73
2023/06/23 03:09:12;;;;;;;5.50;4.43;;;18.80;99.90;;;;;;5036793;28;20231;-72
2023/06/23 03:11:38;;;;;;;6.97;4.68;;;18.90;99.90;;;;;;5036575;28;20185;-69
2023/06/23 03:14:05;;;;;;;5.57;4.18;;;18.90;99.90;;;;;;5023022;28;20205;-73
2023/06/23 03:16:39;;;;;;;4.85;4.32;;;18.90;99.90;;;;;;5036038;28;20197;-72
2023/06/23 03:19:27;;;;;;;6.63;4.72;;;18.90;99.90;;;;;;5036944;28;20230;-73
2023/06/23 03:22:07;;;;;;;6.68;5.30;;;18.90;99.90;;;;;;5035768;28;20216;-72
2023/06/23 03:24:36;;;;;;;5.30;4.40;;;18.90;99.90;;;;;;5037267;28;20173;-74
2023/06/23 03:27:09;;;;;;;5.68;4.97;;;18.90;99.90;;;;;;5036053;28;20192;-71
2023/06/23 03:29:43;;;;;;;6.22;5.50;;;19.00;99.90;;;;;;5035939;28;20197;-72
2023/06/23 03:32:14;;;;;;;7.80;6.45;;;19.00;99.90;;;;;;5051081;28;20192;-72
2023/06/23 03:34:49;;;;;;;7.95;6.35;;;19.00;99.90;;;;;;5036494;28;20212;-70
2023/06/23 03:37:18;;;;;;;7.22;6.05;;;19.00;99.90;;;;;;5036137;28;20250;-70
2023/06/23 03:39:50;;;;;;;9.25;6.47;;;19.00;99.90;;;;;;5032107;28;20184;-74
2023/06/23 03:42:17;;;;;;;7.40;5.90;;;19.00;99.90;;;;;;5023405;28;20205;-71
2023/06/23 03:44:47;;;;;;;9.10;6.25;;;19.00;99.90;;;;;;5050512;28;20197;-74
2023/06/23 03:47:20;;;;;;;7.13;5.72;;;19.00;99.90;;;;;;5037003;28;20180;-72
2023/06/23 03:50:00;;;;;;;6.45;5.20;;;19.00;99.90;;;;;;5037102;28;20184;-74
2023/06/23 03:52:30;;;;;;;8.40;5.53;;;19.00;99.90;;;;;;5038191;28;20186;-69
2023/06/23 03:54:57;;;;;;;6.45;5.50;;;19.00;99.90;;;;;;5034044;28;20210;-74
2023/06/23 03:57:27;;;;;;;6.53;5.47;;;19.00;99.90;;;;;;5041034;28;20165;-72
2023/06/23 03:59:55;;;;;;;7.47;6.05;;;19.00;99.90;;;;;;5040030;28;20331;-73
2023/06/23 04:02:22;;;;;;;8.15;5.82;;;19.00;99.90;;;;;;5036655;28;20193;-74
2023/06/23 04:04:50;;;;;;;7.65;5.55;;;19.00;99.90;;;;;;5040572;28;20180;-71
2023/06/23 04:07:20;;;;;;;6.43;5.63;;;19.00;99.90;;;;;;5040545;28;20182;-73
2023/06/23 04:09:49;;;;;;;7.80;5.80;;;19.00;99.90;;;;;;5043457;28;20169;-74
2023/06/23 04:12:16;;;;;;;7.57;5.80;;;19.00;99.90;;;;;;5040937;28;20173;-73
2023/06/23 04:14:46;;;;;;;7.07;5.65;;;19.00;99.90;;;;;;5034784;28;20229;-74
2023/06/23 04:17:13;;;;;;;14.23;6.55;;;19.00;99.90;;;;;;5035288;28;20189;-72
2023/06/23 04:19:41;;;;;;;9.38;6.35;;;19.00;99.90;;;;;;5040369;28;20174;-72
2023/06/23 04:22:08;;;;;;;10.30;7.55;;;19.00;99.90;;;;;;5038630;28;20208;-74
2023/06/23 04:24:37;;;;;;;10.07;6.85;;;19.00;99.90;;;;;;5040187;28;20231;-71
2023/06/23 04:27:06;;;;;;;8.23;6.57;;;19.00;99.90;;;;;;5036349;28;20182;-73
2023/06/23 04:29:36;;;;;;;9.32;6.72;;;19.00;99.90;;;;;;5027015;28;20192;-74
2023/06/23 04:32:02;;;;;;;10.00;6.95;;;19.10;99.90;;;;;;5040467;28;20187;-73
2023/06/23 04:34:30;;;;;;;11.65;7.63;;;19.10;99.90;;;;;;5039271;28;20209;-64
2023/06/23 04:37:07;;;;;;;8.93;6.80;;;19.10;99.90;;;;;;5039590;28;20180;-65
2023/06/23 04:39:59;;;;;;;10.95;6.93;;;19.10;99.90;;;;;;5039404;28;20161;-64
2023/06/23 04:42:38;;;;;;;11.27;7.45;;;19.20;99.90;;;;;;5040295;28;20215;-65
2023/06/23 04:45:08;;;;;;;9.43;7.18;;;19.20;99.90;;;;;;5039355;28;20177;-65
2023/06/23 04:47:38;;;;;;;9.70;7.43;;;19.30;99.90;;;;;;5039460;28;20315;-65
2023/06/23 04:50:11;;;;;;;9.90;8.13;;;19.30;99.90;;;;;;5038657;28;20208;-66
2023/06/23 04:52:43;;;;;;;10.18;7.68;;;19.30;99.90;;;;;;5038261;28;20197;-65
2023/06/23 04:55:13;;;;;;;10.40;7.68;;;19.30;99.90;;;;;;5037734;28;20188;-66
2023/06/23 04:57:45;;;;;;;10.27;8.27;;;19.30;99.90;;;;;;5039605;28;20192;-66
2023/06/23 05:00:12;;;;;;;9.45;7.55;;;19.40;99.90;;;;;;5039210;28;20221;-65
2023/06/23 05:02:39;;;;;;;10.50;7.93;;;19.40;99.90;;;;;;5039421;28;20285;-66
2023/06/23 05:05:08;;;;;;;9.90;7.97;;;19.40;99.90;;;;;;5038464;28;20188;-65
2023/06/23 05:07:35;;;;;;;11.55;8.50;;;19.40;99.90;;;;;;5039158;28;20289;-65
2023/06/23 05:10:05;;;;;;;8.68;7.45;;;19.40;99.90;;;;;;5038944;28;20348;-66
2023/06/23 05:12:34;;;;;;;10.65;8.65;;;19.50;99.90;;;;;;5036351;28;20294;-65
2023/06/23 05:15:01;;;;;;;12.77;8.88;;;19.50;99.90;;;;;;5028410;28;20173;-66
2023/06/23 05:17:29;;;;;;;11.82;8.88;;;19.50;99.90;;;;;;5038601;28;20170;-66
2023/06/23 05:19:56;;;;;;;13.00;8.85;;;19.50;99.90;;;;;;5038014;28;20288;-65
2023/06/23 05:22:29;;;;;;;12.20;9.25;;;19.50;99.90;;;;;;5030451;28;20281;-65
2023/06/23 05:25:00;;;;;;;12.02;9.57;;;19.50;99.90;;;;;;5051554;28;20173;-65
2023/06/23 05:27:28;;;;;;;12.00;9.70;;;19.60;99.90;;;;;;5035453;28;20189;-66
2023/06/23 05:29:57;;;;;;;12.40;10.98;;;19.60;99.90;;;;;;5039214;28;20254;-66
2023/06/23 05:32:24;;;;;;;13.93;11.77;;;19.60;99.90;;;;;;5035398;28;20245;-65
2023/06/23 05:34:55;;;;;;;14.05;10.98;;;19.60;99.90;;;;;;5052586;28;20209;-66
2023/06/23 05:37:26;;;;;;;14.95;11.95;;;19.60;99.90;;;;;;5039056;28;20161;-64
2023/06/23 05:39:52;;;;;;;14.63;11.60;;;19.60;99.90;;;;;;5040932;28;20207;-71
2023/06/23 05:42:21;;;;;;;12.27;10.75;;;19.60;99.90;;;;;;5031961;28;20265;-73
2023/06/23 05:44:47;;;;;;;16.73;11.52;;;19.60;99.90;;;;;;5038589;28;20234;-70
2023/06/23 05:47:18;;;;;;;14.30;11.55;;;19.60;99.90;;;;;;5038808;28;20180;-71
2023/06/23 05:49:47;;;;;;;12.63;11.25;;;19.60;99.90;;;;;;5036210;28;20200;-72
2023/06/23 05:52:17;;;;;;;13.77;11.80;;;19.60;99.90;;;;;;5038363;28;20170;-71
2023/06/23 05:54:46;;;;;;;13.57;11.32;;;19.60;99.90;;;;;;5038756;28;20209;-71
2023/06/23 05:57:24;;;;;;;13.98;10.38;;;19.60;99.90;;;;;;5038296;28;20197;-72
2023/06/23 06:00:01;;;;;;;12.10;10.75;;;19.60;99.90;;;;;;5038902;28;20197;-71
2023/06/23 06:02:29;;;;;;;14.23;11.95;;;19.60;99.90;;;;;;5039831;28;20211;-72
2023/06/23 06:04:58;;;;;;;14.57;12.65;;;19.70;99.90;;;;;;5038999;28;20385;-72
2023/06/23 06:07:26;;;;;;;14.57;12.90;;;19.70;99.90;;;;;;5038422;28;20220;-71
2023/06/23 06:09:53;;;;;;;15.30;13.45;;;19.80;99.90;;;;;;5038376;28;20197;-72
2023/06/23 06:12:18;;;;;;;15.60;13.40;;;19.80;99.90;;;;;;5038019;28;20185;-72
2023/06/23 06:14:49;;;;;;;14.65;12.43;;;19.80;99.90;;;;;;5038168;28;20255;-71
2023/06/23 06:17:17;;;;;;;16.40;12.82;;;19.90;99.90;;;;;;5034246;28;20182;-72
2023/06/23 06:19:47;;;;;;;14.48;12.98;;;19.90;99.90;;;;;;5040534;28;20181;-71
2023/06/23 06:22:15;;;;;;;17.17;12.93;;;19.90;99.90;;;;;;5018358;28;20194;-71
2023/06/23 06:24:45;;;;;;;13.32;11.70;;;20.00;99.90;;;;;;5037609;28;20196;-71
2023/06/23 06:27:13;;;;;;;12.82;11.18;;;20.00;99.90;;;;;;5037956;28;20248;-72
2023/06/23 06:29:42;;;;;;;16.70;12.25;;;20.00;99.90;;;;;;5038086;28;20212;-70
2023/06/23 06:32:11;;;;;;;14.40;11.75;;;20.10;99.90;;;;;;5038159;28;20173;-70
2023/06/23 06:34:40;;;;;;;13.88;11.63;;;20.10;99.90;;;;;;5038025;28;20193;-71
2023/06/23 06:37:10;;;;;;;13.50;12.13;;;20.10;99.90;;;;;;5021330;28;20286;-70
2023/06/23 06:39:43;;;;;;;14.95;12.15;;;20.10;99.90;;;;;;5038155;28;20439;-71
2023/06/23 06:42:09;;;;;;;12.75;11.38;;;20.10;99.90;;;;;;5037733;28;20177;-71
2023/06/23 06:44:37;;;;;;;17.42;14.50;;;20.10;99.90;;;;;;5038249;28;20180;-72
2023/06/23 06:47:04;;;;;;;14.52;11.80;;;20.00;99.90;;;;;;5027934;28;20178;-71
2023/06/23 06:49:31;;;;;;;15.95;13.52;;;20.00;99.90;;;;;;5030163;28;20193;-71
2023/06/23 06:52:00;;;;;;;15.52;13.20;;;20.00;99.90;;;;;;5037311;28;20189;-70
2023/06/23 06:54:26;;;;;;;13.93;12.18;;;20.00;99.90;;;;;;5037475;28;20216;-71
2023/06/23 06:56:54;;;;;;;15.05;12.80;;;20.00;99.90;;;;;;5037619;28;20280;-70
2023/06/23 06:59:20;;;;;;;15.23;13.02;;;20.10;99.90;;;;;;5037727;28;20180;-71
2023/06/23 07:01:47;;;;;;;15.30;13.77;;;20.10;99.90;;;;;;5037537;28;20169;-71
2023/06/23 07:04:14;;;;;;;17.15;13.30;;;20.10;99.90;;;;;;5037616;28;20238;-71
2023/06/23 07:06:40;;;;;;;14.30;12.77;;;20.20;99.90;;;;;;5037640;28;20203;-72
2023/06/23 07:09:08;;;;;;;16.13;14.30;;;20.20;99.90;;;;;;5037535;28;20197;-71
2023/06/23 07:11:35;;;;;;;15.77;14.07;;;20.30;99.90;;;;;;5037587;28;20200;-70
2023/06/23 07:14:04;;;;;;;16.13;14.43;;;20.30;99.90;;;;;;5035363;28;20194;-69
2023/06/23 07:16:33;;;;;;;16.95;14.48;;;20.40;99.90;;;;;;5036341;28;20197;-71
2023/06/23 07:18:59;;;;;;;15.43;13.82;;;20.40;99.90;;;;;;5038304;28;20169;-68
2023/06/23 07:21:24;;;;;;;14.75;13.25;;;20.50;99.90;;;;;;5036624;28;20177;-67
2023/06/23 07:23:53;;;;;;;15.40;13.52;;;20.60;99.90;;;;;;5037519;28;20219;-67
2023/06/23 07:26:21;;;;;;;14.90;13.40;;;20.70;99.90;;;;;;5037439;28;20173;-67
2023/06/23 07:28:46;;;;;;;16.90;15.20;;;20.70;99.90;;;;;;5038323;28;20184;-68
2023/06/23 07:31:12;;;;;;;15.85;14.25;;;20.70;99.90;;;;;;5021687;28;20202;-68
2023/06/23 07:33:40;;;;;;;16.48;14.88;;;20.80;99.90;;;;;;5029973;28;20189;-67
2023/06/23 07:36:06;;;;;;;18.38;16.50;;;20.80;99.90;;;;;;5041573;28;20172;-68
2023/06/23 07:38:34;;;;;;;17.00;15.20;;;20.90;99.90;;;;;;5040851;28;20248;-68
2023/06/23 07:41:00;;;;;;;17.80;15.95;;;21.00;99.90;;;;;;5041210;28;20169;-68
2023/06/23 07:43:25;;;;;;;19.63;16.75;;;21.10;99.90;;;;;;5032365;28;20200;-69
2023/06/23 07:45:51;;;;;;;17.15;15.35;;;21.20;99.90;;;;;;5041182;28;20184;-68
2023/06/23 07:48:17;;;;;;;15.57;13.82;;;21.20;99.90;;;;;;5041425;28;20174;-68
2023/06/23 07:50:43;;;;;;;16.25;14.52;;;21.20;99.90;;;;;;5040859;28;20216;-69
2023/06/23 07:53:11;;;;;;;14.98;13.48;;;21.30;99.90;;;;;;5041009;28;20197;-69
2023/06/23 07:55:37;;;;;;;15.32;13.25;;;21.30;99.90;;;;;;5040178;28;20169;-68
2023/06/23 07:58:07;;;;;;;14.38;12.93;;;21.30;99.90;;;;;;5040793;28;20200;-68
2023/06/23 08:00:35;;;;;;;12.98;11.68;;;21.40;99.90;;;;;;5040522;28;20177;-68
2023/06/23 08:03:01;;;;;;;14.18;12.77;;;21.40;99.90;;;;;;5040920;28;20263;-69
2023/06/23 08:05:29;;;;;;;16.02;14.43;;;21.40;99.90;;;;;;5040793;28;20222;-68
2023/06/23 08:07:54;;;;;;;17.30;14.15;;;21.50;99.90;;;;;;5040692;28;20193;-68
2023/06/23 08:10:22;;;;;;;16.70;15.02;;;21.50;99.90;;;;;;5040332;28;20206;-69
2023/06/23 08:12:48;;;;;;;15.95;14.30;;;21.50;99.90;;;;;;5033971;28;20186;-68
2023/06/23 08:15:13;;;;;;;14.25;12.80;;;21.50;99.90;;;;;;5039110;28;20173;-68
2023/06/23 08:17:44;;;;;;;14.10;12.60;;;21.60;99.90;;;;;;5040690;28;20189;-68
2023/06/23 08:20:10;;;;;;;15.75;12.95;;;21.70;99.90;;;;;;5040460;28;20260;-70
2023/06/23 08:22:37;;;;;;;13.77;12.55;;;21.80;99.90;;;;;;5039944;28;20208;-69
2023/06/23 08:25:04;;;;;;;13.85;12.18;;;21.90;99.90;;;;;;5039888;28;20201;-69
2023/06/23 08:27:29;;;;;;;12.00;10.80;;;22.00;99.90;;;;;;5036772;28;20182;-67
2023/06/23 08:29:55;;;;;;;12.85;11.55;;;22.10;99.90;;;;;;5040486;28;20181;-68
2023/06/23 08:32:23;;;;;;;11.32;10.00;;;22.10;99.90;;;;;;5040171;28;20181;-68
2023/06/23 08:34:51;;;;;;;10.80;9.70;;;22.20;99.90;;;;;;5040277;28;20193;-67
2023/06/23 08:37:17;;;;;;;11.70;10.05;;;22.20;99.90;;;;;;5036803;28;20262;-69
2023/06/23 08:39:42;;;;;;;12.77;11.57;;;22.30;99.90;;;;;;5036822;28;20181;-69
2023/06/23 08:42:08;;;;;;;11.32;10.10;;;22.30;99.90;;;;;;5026040;28;20234;-68
2023/06/23 08:44:40;;;;;;;12.75;11.45;;;22.30;99.90;;;;;;5039814;28;20216;-68
2023/06/23 08:47:08;;;;;;;11.35;10.15;;;22.30;99.90;;;;;;5039751;28;20181;-68
2023/06/23 08:49:38;;;;;;;9.45;8.57;;;22.40;99.90;;;;;;5039883;28;20429;-68
2023/06/23 08:52:04;;;;;;;9.68;8.70;;;22.40;99.90;;;;;;5040127;28;20197;-68
2023/06/23 08:54:33;;;;;;;9.02;8.23;;;22.50;99.90;;;;;;5039453;28;20204;-68
2023/06/23 08:56:58;;;;;;;8.90;8.00;;;22.50;99.90;;;;;;5039858;28;20173;-69
2023/06/23 08:59:24;;;;;;;9.25;8.27;;;22.60;99.90;;;;;;5036428;28;20174;-68
2023/06/23 09:01:50;;;;;;;7.53;6.70;;;22.60;99.90;;;;;;5036772;28;20174;-67
2023/06/23 09:04:19;;;;;;;7.03;6.28;;;22.70;99.90;;;;;;5039327;28;20200;-66
2023/06/23 09:06:46;;;;;;;6.95;6.15;;;22.80;99.90;;;;;;5039537;28;20173;-68
2023/06/23 09:09:14;;;;;;;7.28;6.22;;;22.90;99.90;;;;;;5022267;28;20174;-68
2023/06/23 09:11:42;;;;;;;7.28;6.57;;;22.90;99.90;;;;;;5039125;28;20198;-67
2023/06/23 09:14:10;;;;;;;7.03;5.75;;;23.00;99.90;;;;;;5039628;28;20296;-67
2023/06/23 09:16:43;;;;;;;5.93;5.38;;;23.00;99.90;;;;;;5039328;28;20162;-68
2023/06/23 09:19:09;;;;;;;5.95;5.45;;;23.00;99.90;;;;;;5056361;28;20339;-67
2023/06/23 09:21:42;;;;;;;6.00;5.40;;;23.10;99.90;;;;;;5039522;28;20177;-66
2023/06/23 09:24:10;;;;;;;6.13;4.78;;;23.20;99.90;;;;;;5039523;28;20234;-67
2023/06/23 09:26:47;;;;;;;5.07;4.35;;;23.30;99.90;;;;;;5038948;28;20174;-67
2023/06/23 09:29:28;;;;;;;5.10;4.60;;;23.30;99.90;;;;;;5039379;28;20173;-68
2023/06/23 09:31:59;;;;;;;5.20;4.70;;;23.40;99.90;;;;;;5039465;28;20288;-68
2023/06/23 09:34:35;;;;;;;4.53;4.13;;;23.60;99.90;;;;;;5039025;28;20189;-68
2023/06/23 09:37:16;;;;;;;5.88;4.93;;;23.60;99.90;;;;;;5039450;28;20184;-68
2023/06/23 09:39:48;;;;;;;5.50;4.70;;;23.70;99.90;;;;;;5039182;28;20186;-67
2023/06/23 09:42:14;;;;;;;4.70;4.30;;;23.90;99.90;;;;;;5038944;28;20316;-67
2023/06/23 09:44:45;;;;;;;5.18;4.68;;;24.00;99.90;;;;;;5039191;28;20200;-67
2023/06/23 09:47:16;;;;;;;4.85;4.40;;;24.10;99.90;;;;;;5035661;28;20178;-68
2023/06/23 09:49:48;;;;;;;6.55;4.63;;;24.20;99.90;;;;;;5035185;28;20277;-68
2023/06/23 09:52:27;;;;;;;5.45;4.95;;;24.30;99.90;;;;;;5054277;28;20201;-68
2023/06/23 09:54:57;;;;;;;4.65;4.25;;;24.40;99.90;;;;;;5035126;28;20441;-68
2023/06/23 09:57:25;;;;;;;4.85;4.40;;;24.40;99.90;;;;;;5018807;28;20177;-67
2023/06/23 09:59:57;;;;;;;4.68;4.28;;;24.50;99.90;;;;;;5020062;28;20259;-67
2023/06/23 10:02:30;;;;;;;5.53;4.18;;;24.50;99.90;;;;;;5034995;28;20292;-69
2023/06/23 10:05:04;;;;;;;4.60;4.13;;;24.60;99.90;;;;;;5038632;28;20181;-69
2023/06/23 10:07:31;;;;;;;4.90;4.40;;;24.70;99.90;;;;;;5038699;28;20176;-69
2023/06/23 10:10:04;;;;;;;4.80;4.28;;;24.80;99.90;;;;;;5033860;28;20166;-68
2023/06/23 10:12:30;;;;;;;5.80;5.10;;;24.90;99.90;;;;;;5028538;28;20193;-69
2023/06/23 10:14:57;;;;;;;4.85;4.03;;;24.90;99.90;;;;;;5038664;28;20200;-68
2023/06/23 10:17:23;;;;;;;4.40;4.00;;;24.90;99.90;;;;;;5038680;28;20268;-68
2023/06/23 10:19:51;;;;;;;6.00;5.40;;;25.00;99.90;;;;;;5038987;28;20204;-68
2023/06/23 10:22:19;;;;;;;5.32;4.22;;;25.10;99.90;;;;;;5038063;28;20196;-67
2023/06/23 10:24:59;;;;;;;4.75;4.22;;;25.20;99.90;;;;;;5036464;28;20185;-67
2023/06/23 10:27:29;;;;;;;4.45;4.05;;;25.20;99.90;;;;;;5035135;28;20204;-70
2023/06/23 10:29:56;;;;;;;4.28;3.88;;;25.20;99.90;;;;;;5036364;28;20205;-68
2023/06/23 10:32:27;;;;;;;4.70;4.30;;;25.30;99.90;;;;;;5034703;28;20228;-68
2023/06/23 10:34:59;;;;;;;4.80;4.22;;;25.30;99.90;;;;;;5050059;28;20169;-68
2023/06/23 10:37:26;;;;;;;5.40;4.85;;;25.40;99.90;;;;;;5034831;28;20166;-68
2023/06/23 10:39:59;;;;;;;4.97;4.47;;;25.50;99.90;;;;;;5038092;28;20228;-69
2023/06/23 10:42:30;;;;;;;4.72;4.32;;;25.60;99.90;;;;;;5038123;28;20174;-68
2023/06/23 10:44:58;;;;;;;4.90;4.25;;;25.70;99.90;;;;;;5038067;28;20175;-69
2023/06/23 10:47:25;;;;;;;5.20;4.53;;;25.80;99.90;;;;;;5037646;28;20197;-69
2023/06/23 10:49:51;;;;;;;5.07;4.68;;;25.80;99.90;;;;;;5037617;28;20223;-68
2023/06/23 10:52:17;;;;;;;5.95;5.00;;;26.00;99.90;;;;;;5034428;28;20179;-68
2023/06/23 10:54:43;;;;;;;6.25;5.57;;;26.10;99.90;;;;;;5034622;28;20202;-68
2023/06/23 10:57:16;;;;;;;5.68;5.15;;;26.30;99.90;;;;;;5038023;28;20181;-69
2023/06/23 11:00:06;;;;;;;5.30;4.80;;;26.40;99.90;;;;;;5035968;28;20190;-68
2023/06/23 11:03:01;;;;;;;5.05;4.63;;;26.50;99.90;;;;;;5037861;28;20184;-69
2023/06/23 11:05:31;;;;;;;5.32;4.57;;;26.60;99.90;;;;;;5023876;28;20189;-69
2023/06/23 11:08:04;;;;;;;5.78;4.30;;;26.60;99.90;;;;;;5037575;28;20173;-71
2023/06/23 11:10:45;;;;;;;5.00;4.50;;;26.80;99.90;;;;;;5037797;28;20255;-67
2023/06/23 11:13:17;;;;;;;4.80;4.38;;;26.90;99.90;;;;;;5037136;28;20216;-68
2023/06/23 11:15:57;;;;;;;4.57;4.10;;;27.00;99.90;;;;;;5038041;28;20235;-67
2023/06/23 11:18:23;;;;;;;4.88;4.40;;;27.20;99.90;;;;;;5037352;28;20173;-69
2023/06/23 11:20:52;;;;;;;5.13;4.70;;;27.30;99.90;;;;;;5034433;28;20195;-69
2023/06/23 11:23:20;;;;;;;4.93;4.43;;;27.40;99.90;;;;;;5034128;28;20200;-68
2023/06/23 11:25:53;;;;;;;4.30;3.78;;;27.40;99.90;;;;;;5044696;28;20203;-69
2023/06/23 11:28:36;;;;;;;4.53;4.13;;;27.50;99.90;;;;;;5037346;28;20181;-68
2023/06/23 11:31:08;;;;;;;4.28;3.88;;;27.50;99.90;;;;;;5037304;28;20233;-68
2023/06/23 11:33:38;;;;;;;4.20;3.65;;;27.50;99.90;;;;;;5037096;28;20205;-68
2023/06/23 11:36:09;;;;;;;5.63;4.05;;;27.60;99.90;;;;;;5036785;28;20256;-68
2023/06/23 11:38:37;;;;;;;4.38;3.88;;;27.70;99.90;;;;;;5037342;28;20154;-69
2023/06/23 11:41:03;;;;;;;4.60;3.90;;;27.90;99.90;;;;;;5036780;28;20201;-68
2023/06/23 11:43:42;;;;;;;3.60;3.30;;;28.00;99.90;;;;;;5037472;28;20184;-69
2023/06/23 11:46:15;;;;;;;5.70;3.80;;;28.20;99.90;;;;;;5033508;28;20243;-69
2023/06/23 11:48:42;;;;;;;4.20;3.60;;;28.30;99.90;;;;;;5036919;28;20174;-68
2023/06/23 11:51:09;;;;;;;4.90;3.90;;;28.40;99.90;;;;;;5037138;28;20212;-68
2023/06/23 11:53:40;;;;;;;3.95;3.65;;;28.40;99.90;;;;;;5036460;28;20248;-68
2023/06/23 11:56:08;;;;;;;4.00;3.60;;;28.40;99.90;;;;;;5037179;28;20166;-69
2023/06/23 11:58:34;;;;;;;4.32;3.92;;;28.40;99.90;;;;;;5036813;28;20208;-68
2023/06/23 12:01:01;;;;;;;4.55;3.70;;;28.40;99.90;;;;;;5036944;28;20180;-68
2023/06/23 12:03:29;;;;;;;3.83;3.47;;;28.30;99.90;;;;;;5036691;28;20178;-69
2023/06/23 12:05:55;;;;;;;4.57;3.72;;;28.20;99.90;;;;;;5054582;28;20285;-68
2023/06/23 12:08:25;;;;;;;3.70;3.40;;;28.10;99.90;;;;;;5033504;28;20201;-69
2023/06/23 12:10:51;;;;;;;3.22;2.90;;;28.00;99.90;;;;;;5036729;28;20191;-68
2023/06/23 12:13:19;;;;;;;4.45;3.30;;;28.00;99.90;;;;;;5036786;28;20232;-68
2023/06/23 12:15:47;;;;;;;3.30;3.00;;;28.10;99.90;;;;;;5037068;28;20173;-68
2023/06/23 12:18:14;;;;;;;3.25;2.95;;;28.10;99.90;;;;;;5040683;28;20200;-68
2023/06/23 12:20:47;;;;;;;3.63;3.10;;;28.30;99.90;;;;;;5028905;28;20249;-68
2023/06/23 12:23:13;;;;;;;3.40;2.85;;;28.40;99.90;;;;;;5020472;28;20173;-68
2023/06/23 12:25:52;;;;;;;3.08;2.75;;;28.40;99.90;;;;;;5039298;28;20474;-68
2023/06/23 12:28:20;;;;;;;3.60;2.55;;;28.50;99.90;;;;;;5040399;28;20173;-68
2023/06/23 12:30:49;;;;;;;3.25;2.95;;;28.50;99.90;;;;;;5040204;28;20242;-69
2023/06/23 12:33:23;;;;;;;2.72;2.53;;;28.70;99.90;;;;;;5040300;28;20197;-68
2023/06/23 12:36:04;;;;;;;2.83;2.58;;;28.80;99.90;;;;;;5039749;28;20187;-69
2023/06/23 12:38:35;;;;;;;2.80;2.53;;;28.90;99.90;;;;;;5040326;28;20176;-68
2023/06/23 12:41:17;;;;;;;2.65;2.45;;;29.00;99.90;;;;;;5052665;28;20223;-68
2023/06/23 12:43:44;;;;;;;2.88;2.65;;;29.20;99.90;;;;;;5038390;28;20287;-69
2023/06/23 12:46:15;;;;;;;3.60;3.10;;;29.40;99.90;;;;;;5037743;28;20166;-69
2023/06/23 12:48:41;;;;;;;2.90;2.67;;;29.50;99.90;;;;;;5077590;22;20303;-68
2023/06/23 12:51:10;;;;;;;4.88;2.28;;;29.60;99.90;;;;;;5020470;28;20201;-69
2023/06/23 12:53:36;;;;;;;4.85;2.88;;;29.70;99.90;;;;;;5020627;28;20201;-69